sensor_id;sensor_type;location;lat;lon;timestamp;temperature;humidity
31619;DHT22;18230;51.502;7.108;2022-09-27T00:01:19;11.50;99.90
31619;DHT22;18230;51.502;7.108;2022-09-27T00:06:48;11.50;99.90
31619;DHT22;18230;51.502;7.108;2022-09-27T00:24:40;11.30;99.90
31619;DHT22;18230;51.502;7.108;2022-09-27T00:36:19;11.30;99.90
31619;DHT22;18230;51.502;7.108;2022-09-27T00:41:31;11.20;99.90
31619;DHT22;18230;51.502;7.108;2022-09-27T00:46:37;11.30;99.90
31619;DHT22;18230;51.502;7.108;2022-09-27T01:03:44;11.20;99.90
31619;DHT22;18230;51.502;7.108;2022-09-27T01:09:14;11.20;99.90
31619;DHT22;18230;51.502;7.108;2022-09-27T01:46:54;11.20;99.90
31619;DHT22;18230;51.502;7.108;2022-09-27T01:52:06;11.10;99.90
31619;DHT22;18230;51.502;7.108;2022-09-27T01:57:10;11.20;99.90
31619;DHT22;18230;51.502;7.108;2022-09-27T02:02:15;11.10;99.90
31619;DHT22;18230;51.502;7.108;2022-09-27T02:07:21;11.20;99.90
31619;DHT22;18230;51.502;7.108;2022-09-27T02:12:25;11.20;99.90
31619;DHT22;18230;51.502;7.108;2022-09-27T02:22:38;11.10;99.90
31619;DHT22;18230;51.502;7.108;2022-09-27T02:28:44;11.10;99.90
31619;DHT22;18230;51.502;7.108;2022-09-27T02:33:14;11.10;99.90
31619;DHT22;18230;51.502;7.108;2022-09-27T02:38:18;11.00;99.90
31619;DHT22;18230;51.502;7.108;2022-09-27T02:43:25;11.00;99.90
31619;DHT22;18230;51.502;7.108;2022-09-27T03:09:53;11.00;99.90
31619;DHT22;18230;51.502;7.108;2022-09-27T03:14:56;11.00;99.90
31619;DHT22;18230;51.502;7.108;2022-09-27T03:19:57;11.00;99.90
31619;DHT22;18230;51.502;7.108;2022-09-27T03:24:57;10.90;99.90
31619;DHT22;18230;51.502;7.108;2022-09-27T03:30:01;10.80;99.90
31619;DHT22;18230;51.502;7.108;2022-09-27T03:35:02;10.70;99.90
31619;DHT22;18230;51.502;7.108;2022-09-27T03:40:04;10.70;99.90
31619;DHT22;18230;51.502;7.108;2022-09-27T03:45:06;10.60;99.90
31619;DHT22;18230;51.502;7.108;2022-09-27T03:50:08;10.50;99.90
31619;DHT22;18230;51.502;7.108;2022-09-27T03:55:11;10.60;99.90
31619;DHT22;18230;51.502;7.108;2022-09-27T04:00:12;10.60;99.90
31619;DHT22;18230;51.502;7.108;2022-09-27T04:05:15;10.70;99.90
31619;DHT22;18230;51.502;7.108;2022-09-27T04:10:16;10.70;99.90
31619;DHT22;18230;51.502;7.108;2022-09-27T04:15:17;10.70;99.90
31619;DHT22;18230;51.502;7.108;2022-09-27T04:20:20;10.70;99.90
31619;DHT22;18230;51.502;7.108;2022-09-27T04:25:21;10.70;99.90
31619;DHT22;18230;51.502;7.108;2022-09-27T04:30:22;10.80;99.90
31619;DHT22;18230;51.502;7.108;2022-09-27T04:35:24;10.70;99.90
31619;DHT22;18230;51.502;7.108;2022-09-27T04:40:43;10.70;99.90
31619;DHT22;18230;51.502;7.108;2022-09-27T04:45:45;10.70;99.90
31619;DHT22;18230;51.502;7.108;2022-09-27T04:50:46;10.60;99.90
31619;DHT22;18230;51.502;7.108;2022-09-27T04:55:47;10.50;99.90
31619;DHT22;18230;51.502;7.108;2022-09-27T05:00:50;10.40;99.90
31619;DHT22;18230;51.502;7.108;2022-09-27T05:05:58;10.30;99.90
31619;DHT22;18230;51.502;7.108;2022-09-27T05:11:06;10.30;99.90
31619;DHT22;18230;51.502;7.108;2022-09-27T05:16:13;10.30;99.90
31619;DHT22;18230;51.502;7.108;2022-09-27T05:21:21;10.30;99.90
31619;DHT22;18230;51.502;7.108;2022-09-27T05:26:23;10.30;99.90
31619;DHT22;18230;51.502;7.108;2022-09-27T05:31:41;10.30;99.90
31619;DHT22;18230;51.502;7.108;2022-09-27T05:36:42;10.30;99.90
31619;DHT22;18230;51.502;7.108;2022-09-27T05:41:44;10.30;99.90
31619;DHT22;18230;51.502;7.108;2022-09-27T05:46:45;10.30;99.90
31619;DHT22;18230;51.502;7.108;2022-09-27T05:51:47;10.20;99.90
31619;DHT22;18230;51.502;7.108;2022-09-27T05:56:48;10.20;99.90
31619;DHT22;18230;51.502;7.108;2022-09-27T06:01:48;10.20;99.90
31619;DHT22;18230;51.502;7.108;2022-09-27T06:06:50;10.30;99.90
31619;DHT22;18230;51.502;7.108;2022-09-27T06:11:51;10.30;99.90
31619;DHT22;18230;51.502;7.108;2022-09-27T06:16:52;10.30;99.90
31619;DHT22;18230;51.502;7.108;2022-09-27T06:21:56;10.40;99.90
31619;DHT22;18230;51.502;7.108;2022-09-27T06:26:57;10.50;99.90
31619;DHT22;18230;51.502;7.108;2022-09-27T06:31:57;10.60;99.90
31619;DHT22;18230;51.502;7.108;2022-09-27T06:36:58;10.60;99.90
31619;DHT22;18230;51.502;7.108;2022-09-27T06:41:59;10.60;99.90
31619;DHT22;18230;51.502;7.108;2022-09-27T06:47:00;10.50;99.90
31619;DHT22;18230;51.502;7.108;2022-09-27T06:52:01;10.50;99.90
31619;DHT22;18230;51.502;7.108;2022-09-27T06:57:02;10.50;99.90
31619;DHT22;18230;51.502;7.108;2022-09-27T07:02:02;10.50;99.90
31619;DHT22;18230;51.502;7.108;2022-09-27T07:07:03;10.60;99.90
31619;DHT22;18230;51.502;7.108;2022-09-27T07:12:05;10.60;99.90
31619;DHT22;18230;51.502;7.108;2022-09-27T07:17:06;10.60;99.90
31619;DHT22;18230;51.502;7.108;2022-09-27T07:22:07;10.70;99.90
31619;DHT22;18230;51.502;7.108;2022-09-27T07:27:08;10.80;99.90
31619;DHT22;18230;51.502;7.108;2022-09-27T07:32:09;10.70;99.90
31619;DHT22;18230;51.502;7.108;2022-09-27T07:37:10;10.80;99.90
31619;DHT22;18230;51.502;7.108;2022-09-27T07:42:10;10.80;99.90
31619;DHT22;18230;51.502;7.108;2022-09-27T07:47:11;10.80;99.90
31619;DHT22;18230;51.502;7.108;2022-09-27T07:52:12;10.90;99.90
31619;DHT22;18230;51.502;7.108;2022-09-27T07:57:13;11.00;99.90
31619;DHT22;18230;51.502;7.108;2022-09-27T08:02:16;11.00;99.90
31619;DHT22;18230;51.502;7.108;2022-09-27T08:07:17;11.00;99.90
31619;DHT22;18230;51.502;7.108;2022-09-27T08:12:18;11.00;99.90
31619;DHT22;18230;51.502;7.108;2022-09-27T08:17:20;11.00;99.90
31619;DHT22;18230;51.502;7.108;2022-09-27T08:22:22;11.00;99.90
31619;DHT22;18230;51.502;7.108;2022-09-27T08:27:23;11.10;99.90
31619;DHT22;18230;51.502;7.108;2022-09-27T08:32:23;11.20;99.90
31619;DHT22;18230;51.502;7.108;2022-09-27T08:37:25;11.40;99.90
31619;DHT22;18230;51.502;7.108;2022-09-27T08:42:28;11.50;99.90
31619;DHT22;18230;51.502;7.108;2022-09-27T08:47:38;11.40;99.90
31619;DHT22;18230;51.502;7.108;2022-09-27T08:52:56;11.50;99.90
31619;DHT22;18230;51.502;7.108;2022-09-27T08:57:58;11.60;99.90
31619;DHT22;18230;51.502;7.108;2022-09-27T09:03:01;11.70;99.90
31619;DHT22;18230;51.502;7.108;2022-09-27T09:24:11;11.60;99.90
31619;DHT22;18230;51.502;7.108;2022-09-27T09:29:46;11.50;99.90
31619;DHT22;18230;51.502;7.108;2022-09-27T09:34:58;11.50;99.90
31619;DHT22;18230;51.502;7.108;2022-09-27T09:40:07;11.50;99.90
31619;DHT22;18230;51.502;7.108;2022-09-27T09:45:21;11.50;99.90
31619;DHT22;18230;51.502;7.108;2022-09-27T09:50:45;11.50;99.90
31619;DHT22;18230;51.502;7.108;2022-09-27T09:56:13;11.40;99.90
31619;DHT22;18230;51.502;7.108;2022-09-27T10:01:26;11.50;99.90
31619;DHT22;18230;51.502;7.108;2022-09-27T10:06:45;11.50;99.90
31619;DHT22;18230;51.502;7.108;2022-09-27T10:11:46;11.40;99.90
31619;DHT22;18230;51.502;7.108;2022-09-27T10:16:58;11.50;99.90
31619;DHT22;18230;51.502;7.108;2022-09-27T10:27:17;11.70;99.90
31619;DHT22;18230;51.502;7.108;2022-09-27T10:32:28;11.80;99.90
31619;DHT22;18230;51.502;7.108;2022-09-27T10:37:32;11.90;99.90
31619;DHT22;18230;51.502;7.108;2022-09-27T10:42:35;11.90;99.90
31619;DHT22;18230;51.502;7.108;2022-09-27T10:47:37;11.80;99.90
31619;DHT22;18230;51.502;7.108;2022-09-27T10:52:39;12.00;99.90
31619;DHT22;18230;51.502;7.108;2022-09-27T10:57:39;12.00;99.90
31619;DHT22;18230;51.502;7.108;2022-09-27T11:02:40;12.20;99.90
31619;DHT22;18230;51.502;7.108;2022-09-27T11:07:50;12.50;99.90
31619;DHT22;18230;51.502;7.108;2022-09-27T11:13:13;12.90;99.90
31619;DHT22;18230;51.502;7.108;2022-09-27T11:18:55;13.00;99.90
31619;DHT22;18230;51.502;7.108;2022-09-27T11:40:36;12.90;99.90
31619;DHT22;18230;51.502;7.108;2022-09-27T11:46:22;12.60;99.90
31619;DHT22;18230;51.502;7.108;2022-09-27T12:13:58;13.00;99.90
31619;DHT22;18230;51.502;7.108;2022-09-27T12:19:00;13.10;99.90
31619;DHT22;18230;51.502;7.108;2022-09-27T12:24:02;12.90;99.90
31619;DHT22;18230;51.502;7.108;2022-09-27T12:29:21;12.70;99.90
31619;DHT22;18230;51.502;7.108;2022-09-27T12:34:53;12.50;99.90
31619;DHT22;18230;51.502;7.108;2022-09-27T12:40:15;12.50;99.90
31619;DHT22;18230;51.502;7.108;2022-09-27T12:45:20;12.40;99.90
31619;DHT22;18230;51.502;7.108;2022-09-27T12:50:39;12.10;99.90
31619;DHT22;18230;51.502;7.108;2022-09-27T13:12:20;11.90;99.90
31619;DHT22;18230;51.502;7.108;2022-09-27T13:22:41;12.10;99.90
31619;DHT22;18230;51.502;7.108;2022-09-27T13:27:42;12.20;99.90
31619;DHT22;18230;51.502;7.108;2022-09-27T13:38:30;12.30;99.90
31619;DHT22;18230;51.502;7.108;2022-09-27T13:43:58;12.30;99.90
31619;DHT22;18230;51.502;7.108;2022-09-27T13:49:15;12.30;99.90
31619;DHT22;18230;51.502;7.108;2022-09-27T13:59:51;12.40;99.90
31619;DHT22;18230;51.502;7.108;2022-09-27T14:05:02;12.40;99.90
31619;DHT22;18230;51.502;7.108;2022-09-27T14:15:59;12.80;99.90
31619;DHT22;18230;51.502;7.108;2022-09-27T14:26:23;13.00;99.90
31619;DHT22;18230;51.502;7.108;2022-09-27T14:31:24;13.00;99.90
31619;DHT22;18230;51.502;7.108;2022-09-27T14:36:29;13.00;99.90
31619;DHT22;18230;51.502;7.108;2022-09-27T14:41:50;13.00;99.90
31619;DHT22;18230;51.502;7.108;2022-09-27T14:47:30;12.90;99.90
31619;DHT22;18230;51.502;7.108;2022-09-27T14:52:33;12.90;99.90
31619;DHT22;18230;51.502;7.108;2022-09-27T14:57:35;12.90;99.90
31619;DHT22;18230;51.502;7.108;2022-09-27T15:02:39;12.90;99.90
31619;DHT22;18230;51.502;7.108;2022-09-27T15:07:42;12.90;99.90
31619;DHT22;18230;51.502;7.108;2022-09-27T15:12:49;12.90;99.90
31619;DHT22;18230;51.502;7.108;2022-09-27T15:17:52;12.80;99.90
31619;DHT22;18230;51.502;7.108;2022-09-27T15:23:03;12.80;99.90
31619;DHT22;18230;51.502;7.108;2022-09-27T15:28:17;13.00;99.90
31619;DHT22;18230;51.502;7.108;2022-09-27T15:33:21;13.10;99.90
31619;DHT22;18230;51.502;7.108;2022-09-27T15:38:39;13.00;99.90
31619;DHT22;18230;51.502;7.108;2022-09-27T15:43:48;13.00;99.90
31619;DHT22;18230;51.502;7.108;2022-09-27T15:49:29;12.90;99.90
31619;DHT22;18230;51.502;7.108;2022-09-27T15:54:32;12.90;99.90
31619;DHT22;18230;51.502;7.108;2022-09-27T15:59:37;12.90;99.90
31619;DHT22;18230;51.502;7.108;2022-09-27T16:04:38;12.90;99.90
31619;DHT22;18230;51.502;7.108;2022-09-27T16:09:39;12.90;99.90
31619;DHT22;18230;51.502;7.108;2022-09-27T16:14:39;12.90;99.90
31619;DHT22;18230;51.502;7.108;2022-09-27T16:19:40;12.90;99.90
31619;DHT22;18230;51.502;7.108;2022-09-27T16:24:41;12.80;99.90
31619;DHT22;18230;51.502;7.108;2022-09-27T16:29:42;12.70;99.90
31619;DHT22;18230;51.502;7.108;2022-09-27T16:34:43;12.60;99.90
31619;DHT22;18230;51.502;7.108;2022-09-27T16:39:45;12.60;99.90
31619;DHT22;18230;51.502;7.108;2022-09-27T16:44:45;12.50;99.90
31619;DHT22;18230;51.502;7.108;2022-09-27T16:49:50;12.40;99.90
31619;DHT22;18230;51.502;7.108;2022-09-27T16:55:09;12.30;99.90
31619;DHT22;18230;51.502;7.108;2022-09-27T17:00:10;12.10;99.90
31619;DHT22;18230;51.502;7.108;2022-09-27T17:05:12;12.10;99.90
31619;DHT22;18230;51.502;7.108;2022-09-27T17:10:12;12.00;99.90
31619;DHT22;18230;51.502;7.108;2022-09-27T17:15:15;11.90;99.90
31619;DHT22;18230;51.502;7.108;2022-09-27T17:20:18;11.80;99.90
31619;DHT22;18230;51.502;7.108;2022-09-27T17:25:19;11.90;99.90
31619;DHT22;18230;51.502;7.108;2022-09-27T17:30:20;11.90;99.90
31619;DHT22;18230;51.502;7.108;2022-09-27T17:35:21;11.90;99.90
31619;DHT22;18230;51.502;7.108;2022-09-27T17:40:21;11.80;99.90
31619;DHT22;18230;51.502;7.108;2022-09-27T17:45:22;11.70;99.90
31619;DHT22;18230;51.502;7.108;2022-09-27T17:50:23;11.70;99.90
31619;DHT22;18230;51.502;7.108;2022-09-27T17:55:24;11.60;99.90
31619;DHT22;18230;51.502;7.108;2022-09-27T18:00:25;11.60;99.90
31619;DHT22;18230;51.502;7.108;2022-09-27T18:05:25;11.50;99.90
31619;DHT22;18230;51.502;7.108;2022-09-27T18:10:26;11.50;99.90
31619;DHT22;18230;51.502;7.108;2022-09-27T18:15:27;11.40;99.90
31619;DHT22;18230;51.502;7.108;2022-09-27T18:20:28;11.40;99.90
31619;DHT22;18230;51.502;7.108;2022-09-27T18:25:29;11.40;99.90
31619;DHT22;18230;51.502;7.108;2022-09-27T18:30:32;11.40;99.90
31619;DHT22;18230;51.502;7.108;2022-09-27T18:35:33;11.40;99.90
31619;DHT22;18230;51.502;7.108;2022-09-27T18:40:34;11.40;99.90
31619;DHT22;18230;51.502;7.108;2022-09-27T18:45:35;11.40;99.90
31619;DHT22;18230;51.502;7.108;2022-09-27T18:50:38;11.30;99.90
31619;DHT22;18230;51.502;7.108;2022-09-27T18:55:39;11.30;99.90
31619;DHT22;18230;51.502;7.108;2022-09-27T19:00:41;11.30;99.90
31619;DHT22;18230;51.502;7.108;2022-09-27T19:05:43;11.20;99.90
31619;DHT22;18230;51.502;7.108;2022-09-27T19:10:44;11.20;99.90
31619;DHT22;18230;51.502;7.108;2022-09-27T19:15:55;11.10;99.90
31619;DHT22;18230;51.502;7.108;2022-09-27T19:21:12;11.10;99.90
31619;DHT22;18230;51.502;7.108;2022-09-27T19:26:16;11.00;99.90
31619;DHT22;18230;51.502;7.108;2022-09-27T19:31:26;11.00;99.90
31619;DHT22;18230;51.502;7.108;2022-09-27T19:36:29;11.00;99.90
31619;DHT22;18230;51.502;7.108;2022-09-27T19:41:30;11.00;99.90
31619;DHT22;18230;51.502;7.108;2022-09-27T19:46:31;11.00;99.90
31619;DHT22;18230;51.502;7.108;2022-09-27T19:51:31;11.20;99.90
31619;DHT22;18230;51.502;7.108;2022-09-27T19:56:34;11.20;99.90
31619;DHT22;18230;51.502;7.108;2022-09-27T20:01:36;11.20;99.90
31619;DHT22;18230;51.502;7.108;2022-09-27T20:06:36;11.10;99.90
31619;DHT22;18230;51.502;7.108;2022-09-27T20:11:37;11.10;99.90
31619;DHT22;18230;51.502;7.108;2022-09-27T21:18:28;11.00;99.90
31619;DHT22;18230;51.502;7.108;2022-09-27T21:23:30;11.00;99.90
31619;DHT22;18230;51.502;7.108;2022-09-27T21:28:53;11.00;99.90
31619;DHT22;18230;51.502;7.108;2022-09-27T21:33:54;11.00;99.90
31619;DHT22;18230;51.502;7.108;2022-09-27T21:38:58;11.00;99.90
31619;DHT22;18230;51.502;7.108;2022-09-27T21:44:02;10.80;99.90
31619;DHT22;18230;51.502;7.108;2022-09-27T21:49:03;10.80;99.90
31619;DHT22;18230;51.502;7.108;2022-09-27T22:59:58;10.70;99.90
